sensor_id;sensor_type;location;lat;lon;timestamp;P1;durP1;ratioP1;P2;durP2;ratioP2
26864;SDS011;40618;51.166;10.322;2023-06-14T00:01:43;3.08;;;1.48;;
26864;SDS011;40618;51.166;10.322;2023-06-14T00:04:10;2.20;;;1.85;;
26864;SDS011;40618;51.166;10.322;2023-06-14T00:06:37;3.45;;;2.20;;
26864;SDS011;40618;51.166;10.322;2023-06-14T00:09:03;3.40;;;1.90;;
26864;SDS011;40618;51.166;10.322;2023-06-14T00:11:30;4.97;;;1.45;;
26864;SDS011;40618;51.166;10.322;2023-06-14T00:13:56;2.13;;;1.85;;
26864;SDS011;40618;51.166;10.322;2023-06-14T00:16:22;1.92;;;1.60;;
26864;SDS011;40618;51.166;10.322;2023-06-14T00:18:48;5.72;;;1.90;;
26864;SDS011;40618;51.166;10.322;2023-06-14T00:21:14;2.13;;;1.60;;
26864;SDS011;40618;51.166;10.322;2023-06-14T00:23:40;3.10;;;1.77;;
26864;SDS011;40618;51.166;10.322;2023-06-14T00:26:05;7.05;;;1.77;;
26864;SDS011;40618;51.166;10.322;2023-06-14T00:28:31;2.80;;;1.48;;
26864;SDS011;40618;51.166;10.322;2023-06-14T00:30:56;2.58;;;1.55;;
26864;SDS011;40618;51.166;10.322;2023-06-14T00:33:22;3.53;;;1.67;;
26864;SDS011;40618;51.166;10.322;2023-06-14T00:35:48;6.55;;;1.70;;
26864;SDS011;40618;51.166;10.322;2023-06-14T00:38:13;3.28;;;1.42;;
26864;SDS011;40618;51.166;10.322;2023-06-14T00:40:39;3.22;;;1.90;;
26864;SDS011;40618;51.166;10.322;2023-06-14T00:43:04;2.53;;;1.75;;
26864;SDS011;40618;51.166;10.322;2023-06-14T00:45:30;3.45;;;1.48;;
26864;SDS011;40618;51.166;10.322;2023-06-14T00:48:00;2.10;;;1.77;;
26864;SDS011;40618;51.166;10.322;2023-06-14T00:50:27;1.60;;;1.50;;
26864;SDS011;40618;51.166;10.322;2023-06-14T00:52:54;2.45;;;1.88;;
26864;SDS011;40618;51.166;10.322;2023-06-14T00:55:21;1.90;;;1.50;;
26864;SDS011;40618;51.166;10.322;2023-06-14T00:57:47;2.63;;;1.73;;
26864;SDS011;40618;51.166;10.322;2023-06-14T01:00:14;1.67;;;1.58;;
26864;SDS011;40618;51.166;10.322;2023-06-14T01:02:40;3.55;;;1.33;;
26864;SDS011;40618;51.166;10.322;2023-06-14T01:05:06;3.72;;;1.60;;
26864;SDS011;40618;51.166;10.322;2023-06-14T01:07:43;2.40;;;1.67;;
26864;SDS011;40618;51.166;10.322;2023-06-14T01:13:18;2.55;;;1.63;;
26864;SDS011;40618;51.166;10.322;2023-06-14T01:15:51;2.15;;;1.45;;
26864;SDS011;40618;51.166;10.322;2023-06-14T01:18:17;1.83;;;1.60;;
26864;SDS011;40618;51.166;10.322;2023-06-14T01:20:44;4.05;;;1.90;;
26864;SDS011;40618;51.166;10.322;2023-06-14T01:23:14;2.38;;;1.27;;
26864;SDS011;40618;51.166;10.322;2023-06-14T01:25:41;2.22;;;1.70;;
26864;SDS011;40618;51.166;10.322;2023-06-14T01:28:09;2.05;;;1.85;;
26864;SDS011;40618;51.166;10.322;2023-06-14T01:30:38;1.80;;;1.52;;
26864;SDS011;40618;51.166;10.322;2023-06-14T01:33:13;2.03;;;1.60;;
26864;SDS011;40618;51.166;10.322;2023-06-14T01:35:42;2.15;;;1.30;;
26864;SDS011;40618;51.166;10.322;2023-06-14T01:38:10;3.33;;;1.48;;
26864;SDS011;40618;51.166;10.322;2023-06-14T01:40:38;2.17;;;1.80;;
26864;SDS011;40618;51.166;10.322;2023-06-14T01:43:06;2.35;;;1.45;;
26864;SDS011;40618;51.166;10.322;2023-06-14T01:45:32;1.73;;;1.52;;
26864;SDS011;40618;51.166;10.322;2023-06-14T01:48:00;2.40;;;1.38;;
26864;SDS011;40618;51.166;10.322;2023-06-14T01:50:32;3.13;;;1.45;;
26864;SDS011;40618;51.166;10.322;2023-06-14T01:52:57;3.28;;;1.80;;
26864;SDS011;40618;51.166;10.322;2023-06-14T01:55:23;1.73;;;1.40;;
26864;SDS011;40618;51.166;10.322;2023-06-14T01:57:52;3.08;;;1.20;;
26864;SDS011;40618;51.166;10.322;2023-06-14T02:00:19;1.52;;;1.33;;
26864;SDS011;40618;51.166;10.322;2023-06-14T02:02:46;2.20;;;1.73;;
26864;SDS011;40618;51.166;10.322;2023-06-14T02:05:12;1.63;;;1.42;;
26864;SDS011;40618;51.166;10.322;2023-06-14T02:07:38;2.85;;;1.70;;
26864;SDS011;40618;51.166;10.322;2023-06-14T02:10:04;3.75;;;1.65;;
26864;SDS011;40618;51.166;10.322;2023-06-14T02:12:30;2.58;;;1.40;;
26864;SDS011;40618;51.166;10.322;2023-06-14T02:14:56;2.40;;;1.65;;
26864;SDS011;40618;51.166;10.322;2023-06-14T02:17:23;5.72;;;1.70;;
26864;SDS011;40618;51.166;10.322;2023-06-14T02:19:48;6.60;;;1.40;;
26864;SDS011;40618;51.166;10.322;2023-06-14T02:22:15;3.72;;;1.50;;
26864;SDS011;40618;51.166;10.322;2023-06-14T02:24:42;2.83;;;1.83;;
26864;SDS011;40618;51.166;10.322;2023-06-14T02:27:08;3.65;;;1.88;;
26864;SDS011;40618;51.166;10.322;2023-06-14T02:29:35;2.33;;;1.55;;
26864;SDS011;40618;51.166;10.322;2023-06-14T02:32:01;4.00;;;1.55;;
26864;SDS011;40618;51.166;10.322;2023-06-14T02:34:27;2.55;;;1.52;;
26864;SDS011;40618;51.166;10.322;2023-06-14T02:36:53;1.85;;;1.40;;
26864;SDS011;40618;51.166;10.322;2023-06-14T02:39:19;1.88;;;1.33;;
26864;SDS011;40618;51.166;10.322;2023-06-14T02:41:46;3.72;;;1.50;;
26864;SDS011;40618;51.166;10.322;2023-06-14T02:44:13;2.28;;;1.50;;
26864;SDS011;40618;51.166;10.322;2023-06-14T02:46:40;2.45;;;1.60;;
26864;SDS011;40618;51.166;10.322;2023-06-14T02:49:06;1.88;;;1.33;;
26864;SDS011;40618;51.166;10.322;2023-06-14T02:51:31;2.20;;;1.65;;
26864;SDS011;40618;51.166;10.322;2023-06-14T02:53:57;2.10;;;1.35;;
26864;SDS011;40618;51.166;10.322;2023-06-14T02:56:22;2.22;;;1.65;;
26864;SDS011;40618;51.166;10.322;2023-06-14T02:58:48;2.30;;;1.48;;
26864;SDS011;40618;51.166;10.322;2023-06-14T03:01:14;1.63;;;1.52;;
26864;SDS011;40618;51.166;10.322;2023-06-14T03:03:41;1.85;;;1.27;;
26864;SDS011;40618;51.166;10.322;2023-06-14T03:06:06;2.80;;;1.80;;
26864;SDS011;40618;51.166;10.322;2023-06-14T03:08:33;2.85;;;1.52;;
26864;SDS011;40618;51.166;10.322;2023-06-14T03:13:33;3.20;;;1.52;;
26864;SDS011;40618;51.166;10.322;2023-06-14T03:16:00;3.28;;;1.25;;
26864;SDS011;40618;51.166;10.322;2023-06-14T03:18:29;1.30;;;1.20;;
26864;SDS011;40618;51.166;10.322;2023-06-14T03:20:56;1.73;;;1.40;;
26864;SDS011;40618;51.166;10.322;2023-06-14T03:23:23;1.67;;;1.00;;
26864;SDS011;40618;51.166;10.322;2023-06-14T03:25:50;1.85;;;1.15;;
26864;SDS011;40618;51.166;10.322;2023-06-14T03:28:16;2.92;;;1.27;;
26864;SDS011;40618;51.166;10.322;2023-06-14T03:30:42;2.92;;;1.25;;
26864;SDS011;40618;51.166;10.322;2023-06-14T03:33:08;1.85;;;1.35;;
26864;SDS011;40618;51.166;10.322;2023-06-14T03:35:34;1.40;;;1.30;;
26864;SDS011;40618;51.166;10.322;2023-06-14T03:38:00;4.07;;;1.00;;
26864;SDS011;40618;51.166;10.322;2023-06-14T03:40:25;1.15;;;1.05;;
26864;SDS011;40618;51.166;10.322;2023-06-14T03:42:53;1.40;;;1.30;;
26864;SDS011;40618;51.166;10.322;2023-06-14T03:45:19;5.43;;;1.50;;
26864;SDS011;40618;51.166;10.322;2023-06-14T03:47:46;1.45;;;1.30;;
26864;SDS011;40618;51.166;10.322;2023-06-14T03:50:12;1.25;;;0.80;;
26864;SDS011;40618;51.166;10.322;2023-06-14T03:52:37;1.45;;;1.00;;
26864;SDS011;40618;51.166;10.322;2023-06-14T03:55:04;2.60;;;1.30;;
26864;SDS011;40618;51.166;10.322;2023-06-14T03:57:30;1.95;;;1.10;;
26864;SDS011;40618;51.166;10.322;2023-06-14T03:59:56;2.03;;;1.33;;
26864;SDS011;40618;51.166;10.322;2023-06-14T04:02:22;4.82;;;1.15;;
26864;SDS011;40618;51.166;10.322;2023-06-14T04:04:47;1.33;;;1.10;;
26864;SDS011;40618;51.166;10.322;2023-06-14T04:07:14;1.20;;;1.05;;
26864;SDS011;40618;51.166;10.322;2023-06-14T04:09:44;1.13;;;1.02;;
26864;SDS011;40618;51.166;10.322;2023-06-14T04:12:10;1.55;;;1.20;;
26864;SDS011;40618;51.166;10.322;2023-06-14T04:14:39;1.65;;;1.13;;
26864;SDS011;40618;51.166;10.322;2023-06-14T04:17:05;2.03;;;1.00;;
26864;SDS011;40618;51.166;10.322;2023-06-14T04:19:31;3.13;;;1.40;;
26864;SDS011;40618;51.166;10.322;2023-06-14T04:21:58;1.33;;;0.95;;
26864;SDS011;40618;51.166;10.322;2023-06-14T04:24:27;1.55;;;1.17;;
26864;SDS011;40618;51.166;10.322;2023-06-14T04:26:59;1.45;;;1.35;;
26864;SDS011;40618;51.166;10.322;2023-06-14T04:29:26;1.20;;;1.10;;
26864;SDS011;40618;51.166;10.322;2023-06-14T04:31:54;3.03;;;1.27;;
26864;SDS011;40618;51.166;10.322;2023-06-14T04:34:24;1.27;;;1.17;;
26864;SDS011;40618;51.166;10.322;2023-06-14T04:36:54;2.78;;;1.48;;
26864;SDS011;40618;51.166;10.322;2023-06-14T04:39:24;1.80;;;1.42;;
26864;SDS011;40618;51.166;10.322;2023-06-14T04:41:51;3.63;;;1.45;;
26864;SDS011;40618;51.166;10.322;2023-06-14T04:44:18;1.40;;;1.02;;
26864;SDS011;40618;51.166;10.322;2023-06-14T04:46:49;2.28;;;1.08;;
26864;SDS011;40618;51.166;10.322;2023-06-14T04:49:15;2.45;;;1.20;;
26864;SDS011;40618;51.166;10.322;2023-06-14T04:51:42;2.97;;;1.40;;
26864;SDS011;40618;51.166;10.322;2023-06-14T04:54:09;3.25;;;1.60;;
26864;SDS011;40618;51.166;10.322;2023-06-14T04:56:38;3.53;;;1.42;;
26864;SDS011;40618;51.166;10.322;2023-06-14T04:59:05;2.53;;;1.50;;
26864;SDS011;40618;51.166;10.322;2023-06-14T05:01:31;2.65;;;1.13;;
26864;SDS011;40618;51.166;10.322;2023-06-14T05:03:58;1.92;;;1.50;;
26864;SDS011;40618;51.166;10.322;2023-06-14T05:06:24;3.92;;;1.60;;
26864;SDS011;40618;51.166;10.322;2023-06-14T05:08:49;2.30;;;1.30;;
26864;SDS011;40618;51.166;10.322;2023-06-14T05:11:15;2.28;;;1.30;;
26864;SDS011;40618;51.166;10.322;2023-06-14T05:13:44;2.58;;;1.38;;
26864;SDS011;40618;51.166;10.322;2023-06-14T05:16:12;4.05;;;1.38;;
26864;SDS011;40618;51.166;10.322;2023-06-14T05:21:06;1.73;;;1.23;;
26864;SDS011;40618;51.166;10.322;2023-06-14T05:23:31;3.08;;;1.55;;
26864;SDS011;40618;51.166;10.322;2023-06-14T05:25:57;2.95;;;1.60;;
26864;SDS011;40618;51.166;10.322;2023-06-14T05:28:23;1.90;;;1.40;;
26864;SDS011;40618;51.166;10.322;2023-06-14T05:30:49;1.35;;;1.25;;
26864;SDS011;40618;51.166;10.322;2023-06-14T05:33:16;2.33;;;1.67;;
26864;SDS011;40618;51.166;10.322;2023-06-14T05:35:42;2.38;;;1.50;;
26864;SDS011;40618;51.166;10.322;2023-06-14T05:38:07;1.70;;;1.33;;
26864;SDS011;40618;51.166;10.322;2023-06-14T05:40:33;1.55;;;1.30;;
26864;SDS011;40618;51.166;10.322;2023-06-14T05:42:59;2.53;;;1.40;;
26864;SDS011;40618;51.166;10.322;2023-06-14T05:45:25;2.92;;;1.42;;
26864;SDS011;40618;51.166;10.322;2023-06-14T05:47:51;4.40;;;1.90;;
26864;SDS011;40618;51.166;10.322;2023-06-14T05:50:19;2.47;;;1.58;;
26864;SDS011;40618;51.166;10.322;2023-06-14T05:52:45;3.67;;;1.42;;
26864;SDS011;40618;51.166;10.322;2023-06-14T05:55:11;2.38;;;1.58;;
26864;SDS011;40618;51.166;10.322;2023-06-14T05:57:37;2.10;;;1.63;;
26864;SDS011;40618;51.166;10.322;2023-06-14T06:00:03;3.13;;;1.80;;
26864;SDS011;40618;51.166;10.322;2023-06-14T06:02:40;2.95;;;1.70;;
26864;SDS011;40618;51.166;10.322;2023-06-14T06:05:11;2.60;;;1.50;;
26864;SDS011;40618;51.166;10.322;2023-06-14T06:07:37;2.33;;;1.58;;
26864;SDS011;40618;51.166;10.322;2023-06-14T06:10:05;2.58;;;1.40;;
26864;SDS011;40618;51.166;10.322;2023-06-14T06:12:31;3.40;;;1.77;;
26864;SDS011;40618;51.166;10.322;2023-06-14T06:14:58;5.97;;;1.70;;
26864;SDS011;40618;51.166;10.322;2023-06-14T06:17:25;2.33;;;1.52;;
26864;SDS011;40618;51.166;10.322;2023-06-14T06:19:51;1.65;;;1.50;;
26864;SDS011;40618;51.166;10.322;2023-06-14T06:22:17;3.05;;;1.80;;
26864;SDS011;40618;51.166;10.322;2023-06-14T06:24:42;2.55;;;1.80;;
26864;SDS011;40618;51.166;10.322;2023-06-14T06:27:08;2.17;;;1.65;;
26864;SDS011;40618;51.166;10.322;2023-06-14T06:29:34;2.08;;;1.85;;
26864;SDS011;40618;51.166;10.322;2023-06-14T06:32:01;3.83;;;1.92;;
26864;SDS011;40618;51.166;10.322;2023-06-14T06:34:27;4.20;;;1.70;;
26864;SDS011;40618;51.166;10.322;2023-06-14T06:36:53;3.33;;;1.85;;
26864;SDS011;40618;51.166;10.322;2023-06-14T06:39:20;4.50;;;1.42;;
26864;SDS011;40618;51.166;10.322;2023-06-14T06:41:45;5.50;;;1.45;;
26864;SDS011;40618;51.166;10.322;2023-06-14T06:44:11;4.38;;;1.90;;
26864;SDS011;40618;51.166;10.322;2023-06-14T06:46:37;4.10;;;1.90;;
26864;SDS011;40618;51.166;10.322;2023-06-14T06:49:06;2.60;;;2.20;;
26864;SDS011;40618;51.166;10.322;2023-06-14T06:51:32;4.85;;;1.88;;
26864;SDS011;40618;51.166;10.322;2023-06-14T06:53:58;2.47;;;1.88;;
26864;SDS011;40618;51.166;10.322;2023-06-14T06:56:23;2.00;;;1.80;;
26864;SDS011;40618;51.166;10.322;2023-06-14T06:58:49;3.72;;;1.65;;
26864;SDS011;40618;51.166;10.322;2023-06-14T07:01:16;3.22;;;1.95;;
26864;SDS011;40618;51.166;10.322;2023-06-14T07:03:42;2.42;;;2.20;;
26864;SDS011;40618;51.166;10.322;2023-06-14T07:06:08;2.67;;;2.03;;
26864;SDS011;40618;51.166;10.322;2023-06-14T07:08:35;2.42;;;1.77;;
26864;SDS011;40618;51.166;10.322;2023-06-14T07:11:00;3.78;;;1.90;;
26864;SDS011;40618;51.166;10.322;2023-06-14T07:13:27;3.63;;;1.98;;
26864;SDS011;40618;51.166;10.322;2023-06-14T07:15:58;4.70;;;2.10;;
26864;SDS011;40618;51.166;10.322;2023-06-14T07:18:27;2.45;;;1.70;;
26864;SDS011;40618;51.166;10.322;2023-06-14T07:20:53;4.47;;;1.98;;
26864;SDS011;40618;51.166;10.322;2023-06-14T07:23:19;3.85;;;2.15;;
26864;SDS011;40618;51.166;10.322;2023-06-14T07:25:45;2.97;;;2.03;;
26864;SDS011;40618;51.166;10.322;2023-06-14T07:28:11;2.88;;;2.10;;
26864;SDS011;40618;51.166;10.322;2023-06-14T07:30:37;2.45;;;1.92;;
26864;SDS011;40618;51.166;10.322;2023-06-14T07:33:02;2.38;;;2.05;;
26864;SDS011;40618;51.166;10.322;2023-06-14T07:35:28;3.67;;;2.30;;
26864;SDS011;40618;51.166;10.322;2023-06-14T07:37:54;4.38;;;2.28;;
26864;SDS011;40618;51.166;10.322;2023-06-14T07:40:19;2.55;;;2.13;;
26864;SDS011;40618;51.166;10.322;2023-06-14T07:42:45;3.95;;;2.38;;
26864;SDS011;40618;51.166;10.322;2023-06-14T07:45:13;2.65;;;2.05;;
26864;SDS011;40618;51.166;10.322;2023-06-14T07:47:39;4.13;;;2.45;;
26864;SDS011;40618;51.166;10.322;2023-06-14T07:50:05;2.97;;;2.58;;
26864;SDS011;40618;51.166;10.322;2023-06-14T07:52:31;3.67;;;2.13;;
26864;SDS011;40618;51.166;10.322;2023-06-14T07:54:56;2.55;;;2.08;;
26864;SDS011;40618;51.166;10.322;2023-06-14T07:57:23;2.45;;;2.13;;
26864;SDS011;40618;51.166;10.322;2023-06-14T07:59:48;4.10;;;2.60;;
26864;SDS011;40618;51.166;10.322;2023-06-14T08:02:15;4.20;;;2.80;;
26864;SDS011;40618;51.166;10.322;2023-06-14T08:04:40;3.60;;;2.30;;
26864;SDS011;40618;51.166;10.322;2023-06-14T08:07:07;2.83;;;2.40;;
26864;SDS011;40618;51.166;10.322;2023-06-14T08:09:33;2.28;;;2.08;;
26864;SDS011;40618;51.166;10.322;2023-06-14T08:12:02;2.70;;;2.03;;
26864;SDS011;40618;51.166;10.322;2023-06-14T08:14:32;3.13;;;2.40;;
26864;SDS011;40618;51.166;10.322;2023-06-14T08:16:58;2.75;;;2.10;;
26864;SDS011;40618;51.166;10.322;2023-06-14T08:19:24;3.97;;;3.00;;
26864;SDS011;40618;51.166;10.322;2023-06-14T08:21:50;4.95;;;2.45;;
26864;SDS011;40618;51.166;10.322;2023-06-14T08:24:16;3.10;;;2.28;;
26864;SDS011;40618;51.166;10.322;2023-06-14T08:26:42;2.83;;;2.35;;
26864;SDS011;40618;51.166;10.322;2023-06-14T08:29:08;2.42;;;2.00;;
26864;SDS011;40618;51.166;10.322;2023-06-14T08:31:33;4.28;;;2.33;;
26864;SDS011;40618;51.166;10.322;2023-06-14T08:33:59;3.20;;;2.17;;
26864;SDS011;40618;51.166;10.322;2023-06-14T08:36:24;2.40;;;2.17;;
26864;SDS011;40618;51.166;10.322;2023-06-14T08:38:50;3.92;;;2.08;;
26864;SDS011;40618;51.166;10.322;2023-06-14T08:41:24;6.28;;;2.45;;
26864;SDS011;40618;51.166;10.322;2023-06-14T08:43:52;3.80;;;2.40;;
26864;SDS011;40618;51.166;10.322;2023-06-14T08:46:18;2.85;;;2.53;;
26864;SDS011;40618;51.166;10.322;2023-06-14T08:48:51;3.97;;;2.28;;
26864;SDS011;40618;51.166;10.322;2023-06-14T08:51:20;10.20;;;2.00;;
26864;SDS011;40618;51.166;10.322;2023-06-14T08:53:54;3.17;;;2.30;;
26864;SDS011;40618;51.166;10.322;2023-06-14T08:56:27;6.55;;;2.50;;
26864;SDS011;40618;51.166;10.322;2023-06-14T08:58:54;4.72;;;2.08;;
26864;SDS011;40618;51.166;10.322;2023-06-14T09:01:21;2.72;;;2.10;;
26864;SDS011;40618;51.166;10.322;2023-06-14T09:03:48;3.35;;;2.00;;
26864;SDS011;40618;51.166;10.322;2023-06-14T09:06:15;2.90;;;1.95;;
26864;SDS011;40618;51.166;10.322;2023-06-14T09:08:44;2.13;;;1.77;;
26864;SDS011;40618;51.166;10.322;2023-06-14T09:11:12;4.85;;;1.83;;
26864;SDS011;40618;51.166;10.322;2023-06-14T09:13:40;3.40;;;1.92;;
26864;SDS011;40618;51.166;10.322;2023-06-14T09:16:07;3.25;;;2.10;;
26864;SDS011;40618;51.166;10.322;2023-06-14T09:21:12;4.03;;;2.38;;
26864;SDS011;40618;51.166;10.322;2023-06-14T09:23:41;2.50;;;2.25;;
26864;SDS011;40618;51.166;10.322;2023-06-14T09:26:15;2.78;;;2.50;;
26864;SDS011;40618;51.166;10.322;2023-06-14T09:28:48;3.28;;;2.25;;
26864;SDS011;40618;51.166;10.322;2023-06-14T09:31:19;2.90;;;2.22;;
26864;SDS011;40618;51.166;10.322;2023-06-14T09:33:46;2.42;;;2.22;;
26864;SDS011;40618;51.166;10.322;2023-06-14T09:38:56;2.88;;;2.13;;
26864;SDS011;40618;51.166;10.322;2023-06-14T09:41:32;4.43;;;2.30;;
26864;SDS011;40618;51.166;10.322;2023-06-14T09:44:05;4.15;;;2.30;;
26864;SDS011;40618;51.166;10.322;2023-06-14T09:46:33;3.75;;;2.40;;
26864;SDS011;40618;51.166;10.322;2023-06-14T09:49:00;2.83;;;2.10;;
26864;SDS011;40618;51.166;10.322;2023-06-14T09:51:28;2.75;;;2.00;;
26864;SDS011;40618;51.166;10.322;2023-06-14T09:53:59;3.30;;;2.42;;
26864;SDS011;40618;51.166;10.322;2023-06-14T09:56:30;2.42;;;2.05;;
26864;SDS011;40618;51.166;10.322;2023-06-14T09:59:02;4.80;;;2.30;;
26864;SDS011;40618;51.166;10.322;2023-06-14T10:01:32;2.97;;;2.08;;
26864;SDS011;40618;51.166;10.322;2023-06-14T10:04:06;2.60;;;2.40;;
26864;SDS011;40618;51.166;10.322;2023-06-14T10:06:38;2.90;;;2.30;;
26864;SDS011;40618;51.166;10.322;2023-06-14T10:09:09;3.13;;;2.10;;
26864;SDS011;40618;51.166;10.322;2023-06-14T10:11:36;2.33;;;2.05;;
26864;SDS011;40618;51.166;10.322;2023-06-14T10:14:03;2.92;;;1.98;;
26864;SDS011;40618;51.166;10.322;2023-06-14T10:16:35;8.10;;;2.38;;
26864;SDS011;40618;51.166;10.322;2023-06-14T10:19:28;5.18;;;2.13;;
26864;SDS011;40618;51.166;10.322;2023-06-14T10:22:01;2.05;;;1.85;;
26864;SDS011;40618;51.166;10.322;2023-06-14T10:24:41;2.25;;;2.05;;
26864;SDS011;40618;51.166;10.322;2023-06-14T10:27:08;2.40;;;2.20;;
26864;SDS011;40618;51.166;10.322;2023-06-14T10:29:38;4.15;;;1.65;;
26864;SDS011;40618;51.166;10.322;2023-06-14T10:32:26;3.03;;;2.08;;
26864;SDS011;40618;51.166;10.322;2023-06-14T10:37:26;2.78;;;2.03;;
26864;SDS011;40618;51.166;10.322;2023-06-14T10:39:52;5.60;;;1.85;;
26864;SDS011;40618;51.166;10.322;2023-06-14T10:42:18;3.15;;;2.05;;
26864;SDS011;40618;51.166;10.322;2023-06-14T10:44:45;3.92;;;1.98;;
26864;SDS011;40618;51.166;10.322;2023-06-14T10:47:26;2.45;;;2.20;;
26864;SDS011;40618;51.166;10.322;2023-06-14T10:50:06;2.72;;;1.83;;
26864;SDS011;40618;51.166;10.322;2023-06-14T10:52:38;4.50;;;2.15;;
26864;SDS011;40618;51.166;10.322;2023-06-14T10:57:43;2.72;;;2.13;;
26864;SDS011;40618;51.166;10.322;2023-06-14T11:00:11;3.97;;;2.03;;
26864;SDS011;40618;51.166;10.322;2023-06-14T11:05:29;4.40;;;1.83;;
26864;SDS011;40618;51.166;10.322;2023-06-14T11:11:05;2.97;;;1.90;;
26864;SDS011;40618;51.166;10.322;2023-06-14T11:13:32;4.97;;;2.17;;
26864;SDS011;40618;51.166;10.322;2023-06-14T11:15:58;1.92;;;1.75;;
26864;SDS011;40618;51.166;10.322;2023-06-14T11:18:24;4.63;;;1.90;;
26864;SDS011;40618;51.166;10.322;2023-06-14T11:20:52;3.00;;;2.20;;
26864;SDS011;40618;51.166;10.322;2023-06-14T11:23:18;2.20;;;1.98;;
26864;SDS011;40618;51.166;10.322;2023-06-14T11:25:49;3.03;;;1.70;;
26864;SDS011;40618;51.166;10.322;2023-06-14T11:28:18;4.00;;;1.90;;
26864;SDS011;40618;51.166;10.322;2023-06-14T11:30:47;5.47;;;1.90;;
26864;SDS011;40618;51.166;10.322;2023-06-14T11:33:17;4.30;;;1.83;;
26864;SDS011;40618;51.166;10.322;2023-06-14T11:35:43;2.03;;;1.70;;
26864;SDS011;40618;51.166;10.322;2023-06-14T11:38:10;1.70;;;1.42;;
26864;SDS011;40618;51.166;10.322;2023-06-14T11:40:37;3.80;;;1.88;;
26864;SDS011;40618;51.166;10.322;2023-06-14T11:43:03;3.42;;;1.83;;
26864;SDS011;40618;51.166;10.322;2023-06-14T11:45:30;3.00;;;1.95;;
26864;SDS011;40618;51.166;10.322;2023-06-14T11:47:57;5.45;;;1.77;;
26864;SDS011;40618;51.166;10.322;2023-06-14T11:50:24;2.58;;;1.80;;
26864;SDS011;40618;51.166;10.322;2023-06-14T11:52:58;4.72;;;1.70;;
26864;SDS011;40618;51.166;10.322;2023-06-14T11:55:31;4.32;;;2.42;;
26864;SDS011;40618;51.166;10.322;2023-06-14T11:58:10;1.92;;;1.75;;
26864;SDS011;40618;51.166;10.322;2023-06-14T12:00:36;4.15;;;1.90;;
26864;SDS011;40618;51.166;10.322;2023-06-14T12:03:02;2.10;;;1.52;;
26864;SDS011;40618;51.166;10.322;2023-06-14T12:05:28;2.05;;;1.67;;
26864;SDS011;40618;51.166;10.322;2023-06-14T12:08:01;2.50;;;1.55;;
26864;SDS011;40618;51.166;10.322;2023-06-14T12:10:29;3.22;;;1.95;;
26864;SDS011;40618;51.166;10.322;2023-06-14T12:12:58;2.08;;;1.92;;
26864;SDS011;40618;51.166;10.322;2023-06-14T12:15:24;4.35;;;2.10;;
26864;SDS011;40618;51.166;10.322;2023-06-14T12:17:53;2.38;;;1.65;;
26864;SDS011;40618;51.166;10.322;2023-06-14T12:20:19;3.28;;;1.73;;
26864;SDS011;40618;51.166;10.322;2023-06-14T12:22:50;2.17;;;1.77;;
26864;SDS011;40618;51.166;10.322;2023-06-14T12:25:32;2.08;;;1.77;;
26864;SDS011;40618;51.166;10.322;2023-06-14T12:28:05;2.57;;;1.70;;
26864;SDS011;40618;51.166;10.322;2023-06-14T12:30:35;1.90;;;1.60;;
26864;SDS011;40618;51.166;10.322;2023-06-14T12:33:02;2.10;;;1.90;;
26864;SDS011;40618;51.166;10.322;2023-06-14T12:35:29;2.75;;;1.73;;
26864;SDS011;40618;51.166;10.322;2023-06-14T12:37:55;1.90;;;1.80;;
26864;SDS011;40618;51.166;10.322;2023-06-14T12:40:21;2.00;;;1.80;;
26864;SDS011;40618;51.166;10.322;2023-06-14T12:42:47;1.60;;;1.50;;
26864;SDS011;40618;51.166;10.322;2023-06-14T12:45:13;2.20;;;1.60;;
26864;SDS011;40618;51.166;10.322;2023-06-14T12:47:39;2.08;;;1.38;;
26864;SDS011;40618;51.166;10.322;2023-06-14T12:50:05;2.50;;;2.30;;
26864;SDS011;40618;51.166;10.322;2023-06-14T12:52:32;1.70;;;1.60;;
26864;SDS011;40618;51.166;10.322;2023-06-14T12:55:07;3.13;;;1.80;;
26864;SDS011;40618;51.166;10.322;2023-06-14T12:57:33;4.68;;;1.65;;
26864;SDS011;40618;51.166;10.322;2023-06-14T13:00:01;1.30;;;1.20;;
26864;SDS011;40618;51.166;10.322;2023-06-14T13:02:28;1.20;;;1.10;;
26864;SDS011;40618;51.166;10.322;2023-06-14T13:04:54;1.42;;;1.33;;
26864;SDS011;40618;51.166;10.322;2023-06-14T13:07:19;1.75;;;1.27;;
26864;SDS011;40618;51.166;10.322;2023-06-14T13:09:45;2.63;;;1.60;;
26864;SDS011;40618;51.166;10.322;2023-06-14T13:12:11;1.35;;;1.05;;
26864;SDS011;40618;51.166;10.322;2023-06-14T13:14:37;2.88;;;1.60;;
26864;SDS011;40618;51.166;10.322;2023-06-14T13:17:05;1.48;;;1.38;;
26864;SDS011;40618;51.166;10.322;2023-06-14T13:19:31;1.70;;;1.40;;
26864;SDS011;40618;51.166;10.322;2023-06-14T13:21:57;3.50;;;1.50;;
26864;SDS011;40618;51.166;10.322;2023-06-14T13:24:22;1.70;;;1.60;;
26864;SDS011;40618;51.166;10.322;2023-06-14T13:26:48;2.53;;;1.60;;
26864;SDS011;40618;51.166;10.322;2023-06-14T13:29:13;2.50;;;1.67;;
26864;SDS011;40618;51.166;10.322;2023-06-14T13:31:39;2.08;;;1.55;;
26864;SDS011;40618;51.166;10.322;2023-06-14T13:34:05;1.92;;;1.83;;
26864;SDS011;40618;51.166;10.322;2023-06-14T13:36:31;1.40;;;1.30;;
26864;SDS011;40618;51.166;10.322;2023-06-14T13:38:57;1.52;;;1.42;;
26864;SDS011;40618;51.166;10.322;2023-06-14T13:41:23;1.60;;;1.50;;
26864;SDS011;40618;51.166;10.322;2023-06-14T13:43:56;1.55;;;1.35;;
26864;SDS011;40618;51.166;10.322;2023-06-14T13:46:23;1.55;;;1.45;;
26864;SDS011;40618;51.166;10.322;2023-06-14T13:48:49;2.10;;;1.42;;
26864;SDS011;40618;51.166;10.322;2023-06-14T13:51:15;2.20;;;1.90;;
26864;SDS011;40618;51.166;10.322;2023-06-14T13:53:42;1.70;;;1.50;;
26864;SDS011;40618;51.166;10.322;2023-06-14T13:56:08;1.77;;;1.27;;
26864;SDS011;40618;51.166;10.322;2023-06-14T13:58:34;1.80;;;1.38;;
26864;SDS011;40618;51.166;10.322;2023-06-14T14:00:59;1.98;;;1.40;;
26864;SDS011;40618;51.166;10.322;2023-06-14T14:03:26;1.50;;;1.40;;
26864;SDS011;40618;51.166;10.322;2023-06-14T14:05:52;2.10;;;1.67;;
26864;SDS011;40618;51.166;10.322;2023-06-14T14:08:17;1.65;;;1.50;;
26864;SDS011;40618;51.166;10.322;2023-06-14T14:10:43;1.80;;;1.40;;
26864;SDS011;40618;51.166;10.322;2023-06-14T14:13:09;3.88;;;1.45;;
26864;SDS011;40618;51.166;10.322;2023-06-14T14:15:34;3.45;;;1.60;;
26864;SDS011;40618;51.166;10.322;2023-06-14T14:18:00;2.45;;;1.25;;
26864;SDS011;40618;51.166;10.322;2023-06-14T14:20:29;2.58;;;1.48;;
26864;SDS011;40618;51.166;10.322;2023-06-14T14:22:56;2.10;;;1.30;;
26864;SDS011;40618;51.166;10.322;2023-06-14T14:25:21;1.60;;;1.50;;
26864;SDS011;40618;51.166;10.322;2023-06-14T14:27:47;1.92;;;1.45;;
26864;SDS011;40618;51.166;10.322;2023-06-14T14:30:13;4.90;;;1.60;;
26864;SDS011;40618;51.166;10.322;2023-06-14T14:32:39;2.35;;;0.82;;
26864;SDS011;40618;51.166;10.322;2023-06-14T14:35:06;2.70;;;1.20;;
26864;SDS011;40618;51.166;10.322;2023-06-14T14:37:32;1.15;;;1.08;;
26864;SDS011;40618;51.166;10.322;2023-06-14T14:39:58;1.33;;;1.20;;
26864;SDS011;40618;51.166;10.322;2023-06-14T14:42:23;2.05;;;1.20;;
26864;SDS011;40618;51.166;10.322;2023-06-14T14:44:51;0.95;;;0.82;;
26864;SDS011;40618;51.166;10.322;2023-06-14T14:47:17;1.23;;;1.00;;
26864;SDS011;40618;51.166;10.322;2023-06-14T14:49:42;1.50;;;0.95;;
26864;SDS011;40618;51.166;10.322;2023-06-14T14:52:08;1.00;;;1.00;;
26864;SDS011;40618;51.166;10.322;2023-06-14T14:54:34;1.10;;;1.00;;
26864;SDS011;40618;51.166;10.322;2023-06-14T14:57:00;1.00;;;0.93;;
26864;SDS011;40618;51.166;10.322;2023-06-14T14:59:27;1.23;;;1.08;;